Time;durP1;ratioP1;P1;durP2;ratioP2;P2;SDS_P1;SDS_P2;PMS_P1;PMS_P2;Temp;Humidity;BMP_temperature;BMP_pressure;BME280_temperature;BME280_humidity;BME280_pressure;Samples;Min_cycle;Max_cycle;Signal;HPM_P1;HPM_P2
2023/11/06 00:00:21;;;;;;;11.32;2.10;;;11.50;53.30;;;;;;5111163;28;20404;-71
2023/11/06 00:02:47;;;;;;;8.18;2.25;;;11.60;52.40;;;;;;5109578;28;20963;-70
2023/11/06 00:05:12;;;;;;;6.83;2.30;;;11.60;52.60;;;;;;5110868;28;20437;-72
2023/11/06 00:07:38;;;;;;;11.02;2.20;;;11.70;52.10;;;;;;5110838;28;20380;-72
2023/11/06 00:10:04;;;;;;;9.70;1.90;;;11.70;51.90;;;;;;5110960;28;20976;-72
2023/11/06 00:12:30;;;;;;;5.67;2.03;;;11.70;51.30;;;;;;5110996;28;20388;-71
2023/11/06 00:14:56;;;;;;;7.60;1.95;;;11.70;51.10;;;;;;5111257;28;20368;-72
2023/11/06 00:17:23;;;;;;;9.40;2.23;;;11.70;50.70;;;;;;5111160;28;20380;-72
2023/11/06 00:19:48;;;;;;;10.30;2.03;;;11.80;50.70;;;;;;5111042;28;20384;-74
2023/11/06 00:22:14;;;;;;;7.68;1.80;;;11.70;50.80;;;;;;5110848;28;20796;-71
2023/11/06 00:24:40;;;;;;;12.43;2.00;;;11.70;51.10;;;;;;5111267;28;20962;-71
2023/11/06 00:27:05;;;;;;;10.10;2.33;;;11.70;50.90;;;;;;5111026;28;20441;-70
2023/11/06 00:29:31;;;;;;;7.28;2.00;;;11.70;50.90;;;;;;5111450;28;20397;-73
2023/11/06 00:31:57;;;;;;;10.00;2.15;;;11.70;50.40;;;;;;5111412;28;20368;-72
2023/11/06 00:34:22;;;;;;;6.77;2.30;;;11.80;50.10;;;;;;5111163;28;20795;-71
2023/11/06 00:36:48;;;;;;;10.18;2.20;;;11.80;50.20;;;;;;5110986;28;20372;-72
2023/11/06 00:39:14;;;;;;;7.95;2.40;;;11.70;50.80;;;;;;5111386;28;20376;-72
2023/11/06 00:41:40;;;;;;;6.55;1.90;;;11.80;49.20;;;;;;5111149;28;20387;-72
2023/11/06 00:44:06;;;;;;;8.30;1.90;;;11.70;50.40;;;;;;5110744;28;20389;-72
2023/11/06 00:46:32;;;;;;;10.35;2.20;;;11.80;49.40;;;;;;5109516;28;20759;-72
2023/11/06 00:48:57;;;;;;;7.25;2.08;;;11.80;49.60;;;;;;5110550;28;20453;-71
2023/11/06 00:51:23;;;;;;;14.45;2.22;;;11.70;50.10;;;;;;5110737;28;20368;-70
2023/11/06 00:53:49;;;;;;;7.47;2.10;;;11.80;50.00;;;;;;5109206;28;20388;-70
2023/11/06 00:56:15;;;;;;;10.52;1.92;;;11.70;49.50;;;;;;5110620;28;20379;-71
2023/11/06 00:58:40;;;;;;;12.02;2.10;;;11.80;48.80;;;;;;5111475;28;20384;-70
2023/11/06 01:01:06;;;;;;;8.07;1.90;;;11.80;48.70;;;;;;5113031;28;20380;-71
2023/11/06 01:03:32;;;;;;;7.13;1.83;;;11.80;48.30;;;;;;5114551;27;20380;-71
2023/11/06 01:05:58;;;;;;;6.47;1.50;;;11.90;48.80;;;;;;5114609;28;20448;-71
2023/11/06 01:08:24;;;;;;;8.40;2.20;;;11.80;49.10;;;;;;5114544;28;20427;-71
2023/11/06 01:10:50;;;;;;;6.15;1.70;;;11.80;48.30;;;;;;5114983;28;20415;-71
2023/11/06 01:13:15;;;;;;;7.72;1.70;;;11.90;48.80;;;;;;5114735;28;20380;-71
2023/11/06 01:15:42;;;;;;;10.90;2.10;;;11.80;48.70;;;;;;5114492;28;20372;-71
2023/11/06 01:18:09;;;;;;;9.80;2.30;;;11.80;48.90;;;;;;5114516;28;20396;-71
2023/11/06 01:20:35;;;;;;;8.98;2.10;;;11.80;48.80;;;;;;5114239;28;20864;-72
2023/11/06 01:23:01;;;;;;;8.68;2.00;;;11.80;48.30;;;;;;5114324;28;20391;-72
2023/11/06 01:25:27;;;;;;;4.93;1.75;;;11.80;48.00;;;;;;5114180;28;20376;-72
2023/11/06 01:27:52;;;;;;;9.27;1.60;;;11.80;47.90;;;;;;5113969;28;20376;-72
2023/11/06 01:30:18;;;;;;;8.03;1.73;;;11.80;48.10;;;;;;5113962;28;20495;-71
2023/11/06 01:32:44;;;;;;;10.20;1.80;;;11.80;48.30;;;;;;5114258;28;20376;-71
2023/11/06 01:35:11;;;;;;;7.22;2.00;;;11.90;47.30;;;;;;5113726;28;20376;-72
2023/11/06 01:37:38;;;;;;;9.05;2.03;;;11.80;48.00;;;;;;5113823;28;20750;-72
2023/11/06 01:40:06;;;;;;;6.05;1.80;;;11.80;48.00;;;;;;5113908;28;20384;-72
2023/11/06 01:42:32;;;;;;;7.30;1.70;;;11.80;47.90;;;;;;5114302;28;20437;-69
2023/11/06 01:44:57;;;;;;;7.10;2.03;;;11.90;47.50;;;;;;5112331;28;20408;-71
2023/11/06 01:47:24;;;;;;;5.80;2.00;;;11.80;48.00;;;;;;5113715;28;20820;-70
2023/11/06 01:49:50;;;;;;;6.78;1.90;;;11.80;48.30;;;;;;5112025;28;20403;-69
2023/11/06 01:52:18;;;;;;;7.43;1.90;;;11.80;48.70;;;;;;5113247;28;20396;-70
2023/11/06 01:54:44;;;;;;;10.43;2.00;;;11.80;48.50;;;;;;5113334;28;20379;-71
2023/11/06 01:57:11;;;;;;;7.53;1.98;;;11.90;47.70;;;;;;5113261;27;20592;-71
2023/11/06 01:59:37;;;;;;;6.15;1.55;;;11.90;47.80;;;;;;5113481;28;20399;-70
2023/11/06 02:02:06;;;;;;;11.60;2.10;;;11.90;48.10;;;;;;5113338;28;20830;-70
2023/11/06 02:04:32;;;;;;;9.38;1.90;;;11.80;48.20;;;;;;5112985;28;20384;-70
2023/11/06 02:07:00;;;;;;;10.25;2.28;;;11.80;49.40;;;;;;5112883;28;20950;-70
2023/11/06 02:09:27;;;;;;;7.15;1.98;;;11.70;49.60;;;;;;5114054;28;20993;-70
2023/11/06 02:11:53;;;;;;;6.43;1.70;;;11.70;48.50;;;;;;5115776;28;20373;-71
2023/11/06 02:14:19;;;;;;;9.88;1.90;;;11.60;49.00;;;;;;5114583;28;20373;-70
2023/11/06 02:16:44;;;;;;;6.43;1.97;;;11.60;49.30;;;;;;5115261;28;20441;-71
2023/11/06 02:19:10;;;;;;;5.80;1.63;;;11.50;50.60;;;;;;5114225;27;20380;-70
2023/11/06 02:21:35;;;;;;;7.60;2.00;;;11.50;51.20;;;;;;5113274;27;20427;-72
2023/11/06 02:24:02;;;;;;;10.55;1.63;;;11.50;50.90;;;;;;5112818;28;20376;-70
2023/11/06 02:26:29;;;;;;;6.50;2.10;;;11.50;50.70;;;;;;5112415;27;20374;-71
2023/11/06 02:28:55;;;;;;;4.85;1.80;;;11.30;51.20;;;;;;5112512;28;20396;-70
2023/11/06 02:31:20;;;;;;;5.40;1.80;;;11.30;51.90;;;;;;5112770;28;20463;-71
2023/11/06 02:33:46;;;;;;;6.70;1.80;;;11.30;52.30;;;;;;5112389;28;20369;-69
2023/11/06 02:36:12;;;;;;;7.57;1.60;;;11.30;52.50;;;;;;5111402;28;20388;-70
2023/11/06 02:38:37;;;;;;;5.20;1.80;;;11.20;52.40;;;;;;5112414;28;20853;-71
2023/11/06 02:41:03;;;;;;;8.18;1.95;;;11.10;54.00;;;;;;5112340;28;20380;-70
2023/11/06 02:43:29;;;;;;;7.05;2.10;;;11.00;54.30;;;;;;5112088;28;20388;-69
2023/11/06 02:45:55;;;;;;;5.97;2.00;;;11.00;54.90;;;;;;5112481;28;20388;-71
2023/11/06 02:48:21;;;;;;;5.60;1.90;;;10.90;56.30;;;;;;5110763;28;20463;-71
2023/11/06 02:50:49;;;;;;;11.90;1.80;;;10.80;57.00;;;;;;5112351;28;20862;-71
2023/11/06 02:53:15;;;;;;;10.90;2.25;;;10.80;57.30;;;;;;5112180;28;20445;-71
2023/11/06 02:55:40;;;;;;;6.20;1.70;;;10.70;58.40;;;;;;5112194;28;20372;-71
2023/11/06 02:58:06;;;;;;;9.43;2.00;;;10.70;58.70;;;;;;5111931;28;20476;-70
2023/11/06 03:00:31;;;;;;;6.10;1.70;;;10.70;59.30;;;;;;5112135;27;20402;-70
2023/11/06 03:02:57;;;;;;;7.72;1.80;;;10.70;58.80;;;;;;5112102;28;20457;-70
2023/11/06 03:05:23;;;;;;;8.17;2.00;;;10.80;58.60;;;;;;5111641;28;20384;-71
2023/11/06 03:07:49;;;;;;;10.30;1.90;;;10.80;57.80;;;;;;5111874;28;20384;-71
2023/11/06 03:10:14;;;;;;;8.27;2.10;;;10.90;57.20;;;;;;5111732;28;20400;-73
2023/11/06 03:12:41;;;;;;;5.03;1.70;;;10.90;57.60;;;;;;5111891;28;20429;-72
2023/11/06 03:15:07;;;;;;;4.78;1.60;;;10.90;57.30;;;;;;5111674;28;20392;-71
2023/11/06 03:17:32;;;;;;;6.35;1.90;;;11.00;56.60;;;;;;5111737;28;20379;-71
2023/11/06 03:19:59;;;;;;;7.50;2.00;;;11.00;56.60;;;;;;5112565;28;20762;-71
2023/11/06 03:22:24;;;;;;;7.03;1.85;;;10.90;58.10;;;;;;5111425;28;20422;-71
2023/11/06 03:24:50;;;;;;;7.03;1.97;;;10.90;57.50;;;;;;5112774;27;20939;-70
2023/11/06 03:27:15;;;;;;;6.13;1.87;;;11.00;57.10;;;;;;5111478;27;20490;-72
2023/11/06 03:29:41;;;;;;;11.13;2.43;;;11.00;56.80;;;;;;5111390;28;20404;-70
2023/11/06 03:32:06;;;;;;;11.20;2.27;;;11.00;57.10;;;;;;5111565;28;20514;-69
2023/11/06 03:34:33;;;;;;;5.82;1.90;;;11.00;57.00;;;;;;5111122;28;20373;-70
2023/11/06 03:36:59;;;;;;;7.40;1.90;;;11.00;57.30;;;;;;5111245;28;20380;-70
2023/11/06 03:39:25;;;;;;;10.83;2.20;;;11.00;57.40;;;;;;5111419;28;20479;-71
2023/11/06 03:41:50;;;;;;;7.47;1.67;;;11.00;57.50;;;;;;5111454;28;20390;-71
2023/11/06 03:44:16;;;;;;;12.75;1.85;;;11.00;57.60;;;;;;5126114;22;20464;-70
2023/11/06 03:46:41;;;;;;;8.63;2.08;;;11.00;58.00;;;;;;5091667;28;20957;-71
2023/11/06 03:49:07;;;;;;;7.30;2.00;;;11.00;57.10;;;;;;5092138;28;20496;-71
2023/11/06 03:51:32;;;;;;;7.70;2.00;;;11.00;56.80;;;;;;5091283;28;20393;-71
2023/11/06 03:53:58;;;;;;;7.23;2.03;;;10.90;58.00;;;;;;5091719;28;20388;-71
2023/11/06 03:56:24;;;;;;;5.17;1.77;;;10.80;57.50;;;;;;5091167;28;20775;-71
2023/11/06 03:58:49;;;;;;;11.40;2.47;;;11.00;56.90;;;;;;5091373;28;20386;-70
2023/11/06 04:01:15;;;;;;;11.27;2.10;;;10.90;57.10;;;;;;5092962;28;20378;-73
2023/11/06 04:03:41;;;;;;;6.18;1.70;;;10.80;57.40;;;;;;5093041;28;20378;-71
2023/11/06 04:06:07;;;;;;;10.00;2.20;;;10.70;57.80;;;;;;5092590;28;20725;-72
2023/11/06 04:08:33;;;;;;;8.55;2.20;;;10.60;57.90;;;;;;5093509;28;20397;-73
2023/11/06 04:10:58;;;;;;;12.45;2.10;;;10.60;58.40;;;;;;5094537;28;20486;-73
2023/11/06 04:13:24;;;;;;;7.20;1.83;;;10.50;58.50;;;;;;5075051;28;20848;-72
2023/11/06 04:15:50;;;;;;;10.70;1.88;;;10.60;58.00;;;;;;5093010;28;20412;-72
2023/11/06 04:18:15;;;;;;;10.27;1.80;;;10.60;57.90;;;;;;5092414;28;20378;-72
2023/11/06 04:20:44;;;;;;;11.10;2.30;;;10.50;58.00;;;;;;5092450;28;20474;-72
2023/11/06 04:23:09;;;;;;;9.20;1.95;;;10.50;58.10;;;;;;5092394;28;20775;-72
2023/11/06 04:25:36;;;;;;;10.23;2.53;;;10.40;58.80;;;;;;5091255;28;20377;-71
2023/11/06 04:28:02;;;;;;;10.10;2.00;;;10.60;58.00;;;;;;5072295;28;20872;-72
2023/11/06 04:30:28;;;;;;;9.63;2.30;;;10.50;58.20;;;;;;5072562;28;20398;-73
2023/11/06 04:32:54;;;;;;;8.83;2.00;;;10.40;59.00;;;;;;5090556;28;20425;-70
2023/11/06 04:35:19;;;;;;;9.80;2.10;;;10.50;58.20;;;;;;5094709;28;20382;-71
2023/11/06 04:37:46;;;;;;;7.28;2.00;;;10.50;58.30;;;;;;5094618;28;20385;-70
2023/11/06 04:40:12;;;;;;;6.30;2.10;;;10.50;58.20;;;;;;5101192;28;20386;-71
2023/11/06 04:42:39;;;;;;;13.95;2.00;;;10.50;58.40;;;;;;5110880;28;20457;-73
2023/11/06 04:45:05;;;;;;;8.27;2.10;;;10.60;57.40;;;;;;5112211;28;20382;-72
2023/11/06 04:47:30;;;;;;;10.82;2.10;;;10.60;57.50;;;;;;5099856;28;20394;-72
2023/11/06 04:49:56;;;;;;;7.18;1.92;;;10.60;57.70;;;;;;5094290;28;20385;-70
2023/11/06 04:52:21;;;;;;;8.85;1.80;;;10.60;57.70;;;;;;5096550;28;20390;-69
2023/11/06 04:54:47;;;;;;;8.60;2.40;;;10.60;58.00;;;;;;5075796;28;20385;-70
2023/11/06 04:57:13;;;;;;;9.83;2.50;;;10.70;56.90;;;;;;5094022;28;20378;-72
2023/11/06 04:59:42;;;;;;;10.57;2.35;;;10.80;55.80;;;;;;5093909;28;20386;-73
2023/11/06 05:02:08;;;;;;;10.02;2.70;;;10.80;55.90;;;;;;5093888;28;20389;-72
2023/11/06 05:04:33;;;;;;;13.03;2.67;;;10.80;55.40;;;;;;5093881;28;20471;-75
2023/11/06 05:06:59;;;;;;;18.00;2.95;;;10.90;55.00;;;;;;5094403;28;20385;-71
2023/11/06 05:09:24;;;;;;;21.02;3.00;;;10.90;54.60;;;;;;5093981;28;20394;-71
2023/11/06 05:11:50;;;;;;;10.45;2.72;;;11.00;54.40;;;;;;5093941;28;20398;-71
2023/11/06 05:14:15;;;;;;;21.58;3.20;;;10.90;55.10;;;;;;5094054;28;20794;-72
2023/11/06 05:16:41;;;;;;;11.37;2.80;;;11.00;54.00;;;;;;5076164;28;20748;-70
2023/11/06 05:19:07;;;;;;;10.80;2.70;;;10.90;54.60;;;;;;5094912;28;20389;-71
2023/11/06 05:21:32;;;;;;;15.07;2.90;;;10.80;55.40;;;;;;5094488;28;20394;-71
2023/11/06 05:23:58;;;;;;;13.03;2.90;;;10.60;57.10;;;;;;5094213;28;20386;-72
2023/11/06 05:26:23;;;;;;;11.53;3.10;;;10.60;57.20;;;;;;5093998;28;20420;-71
2023/11/06 05:28:49;;;;;;;20.45;3.00;;;10.50;59.70;;;;;;5094302;28;20409;-71
2023/11/06 05:31:15;;;;;;;15.80;3.00;;;10.50;58.80;;;;;;5094360;28;20745;-70
2023/11/06 05:33:41;;;;;;;13.77;3.27;;;10.50;58.90;;;;;;5094721;28;20440;-70
2023/11/06 05:36:07;;;;;;;10.03;2.77;;;10.40;59.60;;;;;;5098271;28;20466;-71
2023/11/06 05:38:33;;;;;;;15.50;3.10;;;10.50;59.20;;;;;;5094245;28;20491;-71
2023/11/06 05:40:58;;;;;;;15.65;3.13;;;10.40;59.00;;;;;;5093326;28;20392;-70
2023/11/06 05:43:24;;;;;;;15.63;3.23;;;10.40;60.00;;;;;;5093327;28;20381;-71
2023/11/06 05:45:49;;;;;;;14.77;3.30;;;10.50;59.80;;;;;;5092458;28;20393;-71
2023/11/06 05:48:15;;;;;;;21.70;3.50;;;10.60;59.00;;;;;;5092769;28;20394;-71
2023/11/06 05:50:40;;;;;;;22.63;3.90;;;10.70;57.50;;;;;;5092998;28;20378;-72
2023/11/06 05:53:06;;;;;;;16.27;3.13;;;10.80;56.00;;;;;;5093053;28;20465;-71
2023/11/06 05:55:32;;;;;;;15.67;3.23;;;11.00;55.50;;;;;;5092881;28;20826;-71
2023/11/06 05:57:57;;;;;;;21.17;3.50;;;11.00;54.60;;;;;;5092791;28;20366;-71
2023/11/06 06:00:23;;;;;;;16.33;3.33;;;11.00;54.80;;;;;;5092766;28;20458;-71
2023/11/06 06:02:48;;;;;;;19.13;3.60;;;11.00;54.60;;;;;;5092899;28;20389;-69
2023/11/06 06:05:14;;;;;;;15.03;3.60;;;11.10;53.60;;;;;;5092772;28;20366;-72
2023/11/06 06:07:40;;;;;;;14.07;4.17;;;11.10;53.70;;;;;;5092429;28;20462;-72
2023/11/06 06:10:06;;;;;;;21.40;3.90;;;11.00;55.30;;;;;;5092608;28;20447;-73
2023/11/06 06:12:34;;;;;;;19.83;3.40;;;11.00;54.50;;;;;;5097077;28;20484;-70
2023/11/06 06:15:01;;;;;;;22.50;3.90;;;11.00;54.20;;;;;;5094786;28;20371;-72
2023/11/06 06:17:27;;;;;;;20.27;3.67;;;11.00;54.40;;;;;;5092907;28;20465;-71
2023/11/06 06:19:53;;;;;;;17.73;3.70;;;11.10;54.20;;;;;;5092703;28;20459;-71
2023/11/06 06:22:18;;;;;;;21.55;3.70;;;11.10;53.80;;;;;;5092716;28;20386;-72
2023/11/06 06:24:45;;;;;;;17.50;3.60;;;11.10;53.40;;;;;;5092464;28;20397;-71
2023/11/06 06:27:11;;;;;;;19.40;3.67;;;11.20;52.70;;;;;;5093041;28;20760;-71
2023/11/06 06:29:36;;;;;;;20.80;3.45;;;11.10;53.30;;;;;;5075651;28;20408;-72
2023/11/06 06:32:03;;;;;;;18.80;3.45;;;11.00;52.80;;;;;;5092483;28;20383;-71
2023/11/06 06:34:28;;;;;;;18.38;3.53;;;11.00;53.60;;;;;;5092289;28;20783;-71
2023/11/06 06:36:54;;;;;;;23.43;3.47;;;11.00;53.50;;;;;;5092436;28;20385;-71
2023/11/06 06:39:21;;;;;;;18.95;3.60;;;10.90;54.40;;;;;;5092116;28;20389;-72
2023/11/06 06:41:46;;;;;;;20.05;4.43;;;10.90;54.30;;;;;;5092374;28;20382;-72
2023/11/06 06:44:12;;;;;;;24.37;4.00;;;10.80;55.30;;;;;;5073737;28;20390;-71
2023/11/06 06:46:38;;;;;;;22.60;4.17;;;10.70;55.60;;;;;;5091970;28;20393;-72
2023/11/06 06:49:04;;;;;;;16.10;3.80;;;10.90;54.40;;;;;;5092353;28;20401;-70
2023/11/06 06:51:29;;;;;;;17.77;4.13;;;11.00;53.70;;;;;;5092077;28;20390;-71
2023/11/06 06:53:55;;;;;;;19.15;4.15;;;11.00;53.70;;;;;;5091911;28;20407;-72
2023/11/06 06:56:21;;;;;;;21.20;3.90;;;11.00;53.40;;;;;;5091296;28;20744;-71
2023/11/06 06:58:46;;;;;;;18.42;3.42;;;10.90;53.80;;;;;;5092042;28;20494;-71
2023/11/06 07:01:13;;;;;;;28.48;4.75;;;10.90;53.20;;;;;;5091741;28;20382;-71
2023/11/06 07:03:38;;;;;;;27.33;4.70;;;10.90;53.30;;;;;;5091923;28;20477;-71
2023/11/06 07:06:08;;;;;;;18.37;3.60;;;10.70;54.50;;;;;;5091716;28;20389;-71
2023/11/06 07:08:34;;;;;;;21.42;4.45;;;10.70;54.70;;;;;;5091133;28;20418;-71
2023/11/06 07:10:59;;;;;;;14.70;3.80;;;10.70;54.20;;;;;;5091696;28;20537;-70
2023/11/06 07:13:25;;;;;;;20.43;4.23;;;10.70;53.70;;;;;;5091708;28;20389;-73
2023/11/06 07:15:51;;;;;;;18.67;3.50;;;10.80;53.60;;;;;;5091796;28;20789;-71
2023/11/06 07:18:18;;;;;;;19.35;3.70;;;11.00;52.20;;;;;;5087810;28;20491;-71
2023/11/06 07:20:44;;;;;;;23.30;4.00;;;11.00;52.10;;;;;;5085440;28;20396;-72
2023/11/06 07:23:10;;;;;;;17.65;3.40;;;11.30;49.60;;;;;;5084821;28;20423;-69
2023/11/06 07:25:36;;;;;;;17.60;3.20;;;11.40;48.50;;;;;;5086653;28;20726;-70
2023/11/06 07:28:01;;;;;;;15.27;3.15;;;11.40;47.20;;;;;;5070810;28;20386;-69
2023/11/06 07:30:27;;;;;;;17.17;3.53;;;11.50;47.20;;;;;;5088605;28;20406;-70
2023/11/06 07:32:53;;;;;;;20.10;3.40;;;11.50;47.70;;;;;;5078747;28;20802;-69
2023/11/06 07:35:18;;;;;;;18.73;3.83;;;11.50;46.80;;;;;;5069120;28;20404;-70
2023/11/06 07:37:44;;;;;;;15.87;3.40;;;11.50;46.60;;;;;;5086272;28;20386;-69
2023/11/06 07:40:11;;;;;;;12.60;3.03;;;11.60;46.10;;;;;;5086708;28;20405;-70
2023/11/06 07:42:38;;;;;;;16.33;3.38;;;11.60;45.70;;;;;;5069818;28;20396;-69
2023/11/06 07:45:04;;;;;;;16.60;3.20;;;11.80;44.90;;;;;;5075992;28;20474;-69
2023/11/06 07:47:29;;;;;;;15.55;3.40;;;11.80;44.40;;;;;;5091513;28;20390;-69
2023/11/06 07:49:55;;;;;;;16.15;3.00;;;11.80;44.40;;;;;;5090851;28;20930;-70
2023/11/06 07:52:21;;;;;;;15.13;4.05;;;11.80;44.10;;;;;;5088541;28;20402;-72
2023/11/06 07:54:46;;;;;;;16.48;3.30;;;11.90;43.90;;;;;;5089165;28;20481;-70
2023/11/06 07:57:12;;;;;;;19.13;3.42;;;11.90;43.40;;;;;;5089040;28;20480;-71
2023/11/06 07:59:41;;;;;;;20.10;3.40;;;12.00;42.40;;;;;;5089200;28;20386;-69
2023/11/06 08:02:13;;;;;;;12.52;3.25;;;12.00;42.60;;;;;;5089162;28;20397;-69
2023/11/06 08:04:39;;;;;;;18.92;3.60;;;11.90;42.70;;;;;;5089357;28;20545;-68
2023/11/06 08:07:05;;;;;;;20.13;3.75;;;11.90;43.20;;;;;;5088113;28;20429;-69
2023/11/06 08:09:30;;;;;;;13.98;3.65;;;11.90;42.90;;;;;;5089324;28;20445;-68
2023/11/06 08:11:56;;;;;;;21.58;4.05;;;12.00;42.00;;;;;;5089294;28;20397;-70
2023/11/06 08:14:22;;;;;;;19.17;3.42;;;12.10;41.30;;;;;;5090102;28;20386;-69
2023/11/06 08:16:47;;;;;;;14.03;3.00;;;12.20;41.60;;;;;;5089105;28;20431;-68
2023/11/06 08:19:13;;;;;;;16.40;2.80;;;12.30;40.80;;;;;;5089390;28;20419;-69
2023/11/06 08:21:38;;;;;;;18.63;3.50;;;12.40;39.70;;;;;;5090529;28;20394;-69
2023/11/06 08:24:05;;;;;;;17.92;3.00;;;12.40;39.40;;;;;;5088889;28;20897;-69
2023/11/06 08:26:30;;;;;;;17.67;3.00;;;12.50;38.80;;;;;;5088443;28;20430;-69
2023/11/06 08:28:56;;;;;;;14.63;3.10;;;12.50;38.60;;;;;;5089172;28;20442;-69
2023/11/06 08:31:22;;;;;;;8.73;3.30;;;12.60;38.80;;;;;;5088296;28;20401;-71
2023/11/06 08:33:47;;;;;;;10.30;2.73;;;12.80;38.50;;;;;;5088674;28;20409;-68
2023/11/06 08:36:13;;;;;;;11.07;2.90;;;12.80;37.60;;;;;;5088741;28;20791;-68
2023/11/06 08:38:39;;;;;;;12.33;3.10;;;13.00;37.10;;;;;;5088264;28;20406;-70
2023/11/06 08:41:09;;;;;;;14.50;3.00;;;13.00;36.70;;;;;;5076669;28;20446;-72
2023/11/06 08:43:39;;;;;;;15.25;2.85;;;13.00;36.60;;;;;;5068666;28;20394;-70
2023/11/06 08:46:04;;;;;;;15.85;2.85;;;13.00;35.90;;;;;;5068465;28;20404;-69
2023/11/06 08:48:30;;;;;;;12.80;3.10;;;13.00;35.60;;;;;;5081771;28;20821;-69
2023/11/06 08:50:56;;;;;;;13.57;3.20;;;13.10;36.40;;;;;;5088905;28;20382;-69
2023/11/06 08:53:22;;;;;;;12.13;3.08;;;13.20;35.90;;;;;;5088421;28;20912;-69
2023/11/06 08:55:48;;;;;;;13.82;3.00;;;13.30;34.30;;;;;;5087921;28;20393;-69
2023/11/06 08:58:16;;;;;;;9.55;2.78;;;13.20;34.60;;;;;;5088193;28;20409;-70
2023/11/06 09:00:49;;;;;;;14.20;3.00;;;13.40;34.50;;;;;;5088470;28;20872;-69
2023/11/06 09:03:15;;;;;;;19.48;3.17;;;13.80;33.40;;;;;;5088185;28;20413;-70
2023/11/06 09:05:40;;;;;;;10.90;2.80;;;14.00;32.00;;;;;;5087866;28;20394;-69
2023/11/06 09:08:06;;;;;;;16.20;3.03;;;13.70;32.50;;;;;;5087916;28;20398;-71
2023/11/06 09:10:32;;;;;;;15.75;3.30;;;13.50;33.10;;;;;;5088137;28;20464;-70
2023/11/06 09:13:01;;;;;;;11.35;2.42;;;13.40;33.90;;;;;;5088421;28;20382;-70
2023/11/06 09:15:26;;;;;;;10.63;2.25;;;13.20;34.00;;;;;;5088293;28;20382;-68
2023/11/06 09:17:55;;;;;;;13.63;2.33;;;13.20;34.40;;;;;;5087789;28;20394;-69
2023/11/06 09:20:21;;;;;;;15.75;2.90;;;13.20;34.30;;;;;;5089828;28;20918;-69
2023/11/06 09:22:46;;;;;;;16.27;2.80;;;13.20;33.90;;;;;;5091327;28;20402;-69
2023/11/06 09:25:12;;;;;;;16.75;3.30;;;13.10;34.70;;;;;;5090397;28;20420;-71
2023/11/06 09:27:38;;;;;;;15.80;3.15;;;13.20;34.80;;;;;;5080231;28;20756;-69
2023/11/06 09:30:07;;;;;;;14.52;3.03;;;13.10;34.10;;;;;;5092061;28;20402;-70
2023/11/06 09:32:32;;;;;;;13.07;2.70;;;13.00;35.20;;;;;;5080119;28;20490;-69
2023/11/06 09:35:00;;;;;;;18.13;2.80;;;12.80;35.50;;;;;;5083178;28;20469;-71
2023/11/06 09:37:26;;;;;;;15.33;2.53;;;12.70;35.70;;;;;;5094252;28;20447;-69
2023/11/06 09:39:52;;;;;;;14.83;2.90;;;12.60;36.10;;;;;;5094914;28;20393;-71
2023/11/06 09:42:17;;;;;;;19.47;2.90;;;12.50;36.60;;;;;;5093834;28;20382;-67
2023/11/06 09:44:46;;;;;;;19.13;3.20;;;12.50;36.50;;;;;;5099438;23;20534;-69
2023/11/06 09:47:12;;;;;;;16.40;2.95;;;12.50;36.60;;;;;;5068395;28;20746;-69
2023/11/06 09:49:43;;;;;;;17.10;3.03;;;12.50;36.90;;;;;;5073002;28;20840;-70
2023/11/06 09:52:09;;;;;;;10.75;2.90;;;12.50;36.90;;;;;;5071801;28;20395;-71
2023/11/06 09:54:37;;;;;;;15.93;3.28;;;12.50;37.00;;;;;;5073288;28;20400;-71
2023/11/06 09:57:05;;;;;;;13.18;3.60;;;12.60;36.40;;;;;;5054666;28;20391;-71
2023/11/06 09:59:31;;;;;;;12.73;2.97;;;12.70;36.40;;;;;;5071785;28;20404;-70
2023/11/06 10:01:58;;;;;;;13.20;2.85;;;12.80;36.30;;;;;;5072710;28;20425;-71
2023/11/06 10:04:24;;;;;;;15.18;3.00;;;12.80;36.20;;;;;;5072669;28;20379;-70
2023/11/06 10:06:50;;;;;;;17.35;2.95;;;12.70;36.30;;;;;;5076624;28;20383;-73
2023/11/06 10:09:20;;;;;;;17.40;3.50;;;12.50;36.80;;;;;;5081370;28;20406;-74
2023/11/06 10:11:46;;;;;;;16.98;3.00;;;12.50;37.00;;;;;;5083071;28;20376;-72
2023/11/06 10:14:11;;;;;;;19.52;3.58;;;12.60;37.00;;;;;;5057354;28;20521;-70
2023/11/06 10:16:37;;;;;;;15.85;3.40;;;12.70;36.90;;;;;;5073383;28;20387;-71
2023/11/06 10:19:12;;;;;;;16.88;3.40;;;12.80;35.80;;;;;;5072679;28;20398;-71
2023/11/06 10:21:41;;;;;;;17.05;3.28;;;12.70;36.50;;;;;;5054607;28;20462;-71
2023/11/06 10:24:09;;;;;;;14.32;3.03;;;12.90;35.70;;;;;;5072860;28;20443;-72
2023/11/06 10:26:34;;;;;;;17.00;3.30;;;13.20;35.40;;;;;;5071923;28;20407;-71
2023/11/06 10:29:19;;;;;;;21.60;3.53;;;13.50;34.30;;;;;;5064862;28;20797;-71
2023/11/06 10:31:46;;;;;;;16.50;3.55;;;13.70;33.00;;;;;;5047572;28;20906;-70
2023/11/06 10:34:37;;;;;;;11.27;2.85;;;14.00;32.50;;;;;;5069486;28;22246;-71
2023/11/06 10:37:10;;;;;;;16.50;2.90;;;14.30;31.20;;;;;;5069913;28;20392;-70
2023/11/06 10:39:59;;;;;;;23.60;2.90;;;14.40;31.10;;;;;;5071099;28;20388;-70
2023/11/06 10:42:25;;;;;;;13.43;2.70;;;14.80;30.10;;;;;;5052923;28;20911;-73
2023/11/06 10:44:57;;;;;;;10.57;2.70;;;15.10;28.60;;;;;;5051747;28;20416;-72
2023/11/06 10:47:33;;;;;;;15.55;2.55;;;15.20;27.60;;;;;;5071187;28;20396;-73
2023/11/06 10:50:01;;;;;;;12.88;3.38;;;15.20;27.60;;;;;;5064671;28;20406;-72
2023/11/06 10:52:30;;;;;;;13.80;2.72;;;15.20;27.80;;;;;;5017359;28;20868;-72
2023/11/06 10:54:58;;;;;;;11.15;2.65;;;15.40;27.50;;;;;;5047923;28;20716;-72
2023/11/06 10:57:26;;;;;;;9.45;2.05;;;15.40;26.80;;;;;;5071373;28;20814;-73
2023/11/06 10:59:55;;;;;;;14.52;2.90;;;15.50;26.60;;;;;;5053510;28;20375;-73
2023/11/06 11:02:42;;;;;;;12.05;2.60;;;15.60;26.70;;;;;;5071500;28;20392;-71
2023/11/06 11:05:11;;;;;;;13.70;1.90;;;15.70;26.10;;;;;;5053524;28;20426;-73
2023/11/06 11:07:41;;;;;;;10.40;2.20;;;15.60;26.10;;;;;;5071302;28;20825;-73
2023/11/06 11:10:14;;;;;;;9.45;2.00;;;15.70;25.50;;;;;;5071671;28;20404;-71
2023/11/06 11:12:40;;;;;;;6.95;2.28;;;15.70;25.80;;;;;;5071645;28;20743;-72
2023/11/06 11:15:07;;;;;;;13.05;2.00;;;15.60;25.60;;;;;;5072123;28;20762;-73
2023/11/06 11:17:34;;;;;;;14.03;2.40;;;15.40;25.70;;;;;;5071598;28;20870;-72
2023/11/06 11:20:05;;;;;;;8.52;2.20;;;15.20;26.50;;;;;;5071581;28;20755;-72
2023/11/06 11:22:34;;;;;;;5.65;1.60;;;15.10;27.20;;;;;;5071535;28;20475;-72
2023/11/06 11:25:00;;;;;;;9.80;2.50;;;14.90;26.70;;;;;;5071335;28;20423;-72
2023/11/06 11:27:30;;;;;;;9.25;2.00;;;14.80;27.70;;;;;;5070874;28;20751;-72
2023/11/06 11:29:56;;;;;;;9.70;1.60;;;14.70;28.10;;;;;;5071196;28;20935;-72
2023/11/06 11:32:23;;;;;;;9.25;2.10;;;14.70;28.10;;;;;;5054458;28;20463;-72
2023/11/06 11:34:48;;;;;;;5.90;1.40;;;14.70;28.40;;;;;;5071404;28;20391;-72
2023/11/06 11:37:26;;;;;;;7.00;1.60;;;14.60;28.50;;;;;;5071200;28;20375;-72
2023/11/06 11:39:55;;;;;;;5.45;1.80;;;14.40;28.50;;;;;;5070825;28;20428;-72
2023/11/06 11:42:21;;;;;;;6.53;1.70;;;14.20;29.40;;;;;;5069985;28;20384;-71
2023/11/06 11:45:07;;;;;;;7.03;1.95;;;14.20;30.10;;;;;;5070405;28;20399;-71
2023/11/06 11:47:48;;;;;;;11.18;2.10;;;14.30;29.90;;;;;;5070334;28;20474;-71
2023/11/06 11:50:38;;;;;;;4.38;1.30;;;14.60;29.60;;;;;;5070400;28;20399;-72
2023/11/06 11:53:04;;;;;;;5.05;1.50;;;14.90;27.70;;;;;;5070414;28;20383;-72
2023/11/06 11:55:34;;;;;;;5.90;1.60;;;15.00;27.80;;;;;;5070519;28;20379;-72
2023/11/06 11:58:00;;;;;;;8.27;1.40;;;14.80;27.90;;;;;;5070521;28;20398;-71
2023/11/06 12:00:26;;;;;;;4.50;1.35;;;14.80;28.60;;;;;;5070243;28;20423;-72
2023/11/06 12:03:08;;;;;;;7.57;1.27;;;14.80;28.20;;;;;;5070605;28;20399;-73
2023/11/06 12:05:36;;;;;;;6.05;1.25;;;15.00;27.00;;;;;;5052133;28;20449;-72
2023/11/06 12:08:13;;;;;;;6.00;1.57;;;15.00;27.30;;;;;;5052264;28;20437;-72
2023/11/06 12:10:42;;;;;;;6.72;1.70;;;15.10;27.30;;;;;;5071202;28;20407;-73
2023/11/06 12:13:15;;;;;;;8.85;1.45;;;15.20;26.80;;;;;;5071013;28;20869;-71
2023/11/06 12:15:41;;;;;;;5.93;1.38;;;15.10;27.10;;;;;;5070281;28;20463;-73
2023/11/06 12:18:11;;;;;;;9.30;1.60;;;15.00;27.40;;;;;;5070469;28;20380;-71
2023/11/06 12:20:37;;;;;;;5.00;1.50;;;14.90;28.10;;;;;;5070341;28;20376;-72
2023/11/06 12:23:03;;;;;;;11.43;1.70;;;14.90;27.80;;;;;;5070395;28;20882;-72
2023/11/06 12:25:33;;;;;;;7.53;1.60;;;14.80;28.50;;;;;;5051686;28;20383;-71
2023/11/06 12:28:04;;;;;;;3.78;1.23;;;14.70;29.10;;;;;;5070108;28;20383;-73
2023/11/06 12:30:30;;;;;;;10.27;1.90;;;14.60;29.30;;;;;;5069977;28;20443;-72
2023/11/06 12:32:55;;;;;;;4.80;1.40;;;14.50;30.00;;;;;;5070614;28;20826;-74
2023/11/06 12:35:21;;;;;;;6.38;1.50;;;14.50;30.20;;;;;;5070364;28;20378;-71
2023/11/06 12:37:58;;;;;;;3.13;1.30;;;14.60;29.90;;;;;;5071723;28;20383;-74